Time;durP1;ratioP1;P1;durP2;ratioP2;P2;SDS_P1;SDS_P2;PMS_P1;PMS_P2;Temp;Humidity;BMP_temperature;BMP_pressure;BME280_temperature;BME280_humidity;BME280_pressure;Samples;Min_cycle;Max_cycle;Signal;HPM_P1;HPM_P2
2023/05/04 00:01:39;;;;;;;9.63;6.20;;;;;;;;;;5047535;28;20414;-60
2023/05/04 00:04:07;;;;;;;8.90;5.77;;;;;;;;;;5041826;28;20469;-60
2023/05/04 00:06:34;;;;;;;8.82;6.28;;;;;;;;;;5039628;28;20924;-59
2023/05/04 00:09:01;;;;;;;8.45;6.05;;;;;;;;;;5042251;28;20420;-60
2023/05/04 00:11:28;;;;;;;9.07;6.10;;;;;;;;;;5046205;28;20491;-59
2023/05/04 00:13:55;;;;;;;8.27;5.80;;;;;;;;;;5031631;28;20845;-60
2023/05/04 00:16:22;;;;;;;11.20;6.05;;;;;;;;;;5031188;28;20469;-60
2023/05/04 00:18:51;;;;;;;10.25;6.30;;;;;;;;;;5031261;28;20411;-60
2023/05/04 00:21:17;;;;;;;10.17;6.80;;;;;;;;;;5031472;28;20766;-60
2023/05/04 00:23:44;;;;;;;11.38;6.15;;;;;;;;;;5031322;28;20825;-59
2023/05/04 00:26:11;;;;;;;7.85;5.95;;;;;;;;;;5039748;28;20425;-60
2023/05/04 00:28:38;;;;;;;8.68;6.05;;;;;;;;;;5043752;28;20489;-58
2023/05/04 00:31:06;;;;;;;12.73;6.57;;;;;;;;;;5046726;28;20434;-59
2023/05/04 00:33:32;;;;;;;12.02;6.60;;;12.90;99.90;;;;;;5045714;28;20940;-60
2023/05/04 00:36:03;;;;;;;9.73;5.93;;;;;;;;;;5039551;28;20472;-60
2023/05/04 00:38:30;;;;;;;8.73;6.13;;;;;;;;;;5041281;28;20413;-60
2023/05/04 00:40:57;;;;;;;11.15;6.65;;;;;;;;;;5041852;28;20832;-58
2023/05/04 00:43:25;;;;;;;11.63;7.03;;;;;;;;;;5041703;28;20896;-58
2023/05/04 00:45:52;;;;;;;8.88;6.53;;;;;;;;;;5041275;28;20413;-59
2023/05/04 00:48:19;;;;;;;11.20;6.72;;;;;;;;;;5039213;28;20774;-60
2023/05/04 00:50:46;;;;;;;9.50;6.30;;;;;;;;;;5040059;28;20445;-59
2023/05/04 00:53:14;;;;;;;8.15;6.38;;;;;;;;;;5042123;28;20463;-59
2023/05/04 00:55:41;;;;;;;10.70;6.60;;;;;;;;;;5040768;28;20423;-60
2023/05/04 00:58:08;;;;;;;12.35;6.88;;;;;;;;;;5041672;28;20417;-60
2023/05/04 01:00:35;;;;;;;9.60;6.45;;;;;;;;;;5049949;28;20422;-60
2023/05/04 01:03:02;;;;;;;10.32;6.45;;;;;;;;;;5047297;28;20419;-58
2023/05/04 01:05:31;;;;;;;8.73;6.50;;;;;;;;;;5042724;28;20550;-60
2023/05/04 01:08:01;;;;;;;11.77;6.65;;;;;;;;;;5040159;28;20829;-59
2023/05/04 01:10:33;;;;;;;10.77;6.70;;;;;;;;;;5042444;28;20421;-59
2023/05/04 01:13:01;;;;;;;9.70;6.95;;;;;;;;;;5037828;28;20928;-60
2023/05/04 01:15:29;;;;;;;11.18;7.55;;;;;;;;;;5041765;28;20421;-59
2023/05/04 01:17:56;;;;;;;10.02;7.15;;;;;;;;;;5040239;28;20406;-60
2023/05/04 01:20:23;;;;;;;11.43;7.70;;;;;;;;;;5041517;28;20441;-60
2023/05/04 01:22:51;;;;;;;11.57;7.03;;;;;;;;;;5041036;28;20440;-60
2023/05/04 01:25:19;;;;;;;10.70;7.43;;;;;;;;;;5043147;28;20483;-60
2023/05/04 01:27:47;;;;;;;12.05;6.97;;;;;;;;;;5038546;28;20422;-58
2023/05/04 01:30:17;;;;;;;10.70;7.32;;;;;;;;;;5052906;28;20449;-60
2023/05/04 01:32:45;;;;;;;8.95;7.63;;;;;;;;;;5045715;28;20930;-60
2023/05/04 01:35:13;;;;;;;11.43;7.47;;;;;;;;;;5040482;28;20413;-60
2023/05/04 01:37:40;;;;;;;11.73;8.32;;;;;;;;;;5038981;28;20411;-60
2023/05/04 01:40:09;;;;;;;11.48;8.43;;;;;;;;;;5045856;28;20803;-60
2023/05/04 01:42:36;;;;;;;14.27;8.80;;;;;;;;;;5038826;28;20914;-59
2023/05/04 01:45:03;;;;;;;11.88;9.02;;;;;;;;;;5041102;28;20784;-60
2023/05/04 01:47:30;;;;;;;14.02;8.40;;;;;;;;;;5039356;28;20443;-59
2023/05/04 01:49:57;;;;;;;11.77;8.80;;;;;;;;;;5043871;28;20423;-58
2023/05/04 01:52:24;;;;;;;12.23;8.88;;;;;;;;;;5047797;28;20429;-60
2023/05/04 01:54:51;;;;;;;13.57;8.63;;;;;;;;;;5045396;28;20915;-59
2023/05/04 01:57:19;;;;;;;12.57;8.95;;;;;;;;;;5040753;28;20835;-60
2023/05/04 01:59:46;;;;;;;10.77;8.30;;;;;;;;;;5047889;28;20417;-59
2023/05/04 02:02:13;;;;;;;14.27;8.43;;;;;;;;;;5045704;28;20411;-59
2023/05/04 02:04:41;;;;;;;10.38;8.05;;;;;;;;;;5042353;28;20423;-59
2023/05/04 02:07:08;;;;;;;12.88;8.88;;;;;;;;;;5044528;28;20412;-60
2023/05/04 02:09:35;;;;;;;12.30;8.70;;;;;;;;;;5043692;28;20411;-59
2023/05/04 02:12:02;;;;;;;10.85;8.80;;;;;;;;;;5045749;28;20506;-58
2023/05/04 02:14:30;;;;;;;13.50;8.85;;;;;;;;;;5042672;28;20415;-60
2023/05/04 02:16:57;;;;;;;12.63;9.68;;;;;;;;;;5046224;28;20413;-59
2023/05/04 02:19:24;;;;;;;12.70;8.95;;;;;;;;;;5045550;28;20481;-59
2023/05/04 02:21:52;;;;;;;11.45;8.55;;;;;;;;;;5043024;28;20479;-60
2023/05/04 02:24:19;;;;;;;11.57;8.23;;;;;;;;;;5044843;28;20417;-59
2023/05/04 02:26:46;;;;;;;13.05;9.25;;;;;;;;;;5040056;28;20471;-60
2023/05/04 02:29:13;;;;;;;12.77;9.48;;;;;;;;;;5047951;28;20438;-58
2023/05/04 02:31:41;;;;;;;12.17;9.53;;;;;;;;;;5048042;28;20425;-59
2023/05/04 02:34:08;;;;;;;14.70;9.40;;;;;;;;;;5033266;28;20442;-60
2023/05/04 02:36:35;;;;;;;14.43;9.80;;;;;;;;;;5033198;28;20415;-60
2023/05/04 02:39:02;;;;;;;14.93;9.63;;;;;;;;;;5032830;28;20481;-60
2023/05/04 02:41:29;;;;;;;15.55;10.63;;;;;;;;;;5040481;28;20448;-60
2023/05/04 02:43:56;;;;;;;14.60;9.53;;;;;;;;;;5042430;28;20547;-60
2023/05/04 02:46:25;;;;;;;12.30;9.70;;;;;;;;;;5042237;28;20415;-59
2023/05/04 02:48:53;;;;;;;13.48;9.13;;;;;;;;;;5044055;28;20504;-59
2023/05/04 02:51:20;;;;;;;12.50;8.90;;;;;;;;;;5043220;28;20471;-59
2023/05/04 02:53:47;;;;;;;11.52;8.57;;;;;;;;;;5041567;28;20434;-60
2023/05/04 02:56:14;;;;;;;13.90;9.38;;;;;;;;;;5044914;28;20492;-60
2023/05/04 02:58:41;;;;;;;13.88;9.75;;;;;;;;;;5045232;28;20449;-58
2023/05/04 03:01:08;;;;;;;13.00;9.80;;;;;;;;;;5045666;28;20480;-59
2023/05/04 03:03:35;;;;;;;13.57;9.80;;;;;;;;;;5047441;28;20559;-60
2023/05/04 03:06:05;;;;;;;12.77;9.30;;;;;;;;;;5040519;28;21322;-59
2023/05/04 03:08:32;;;;;;;15.27;10.38;;;;;;;;;;5043110;28;20475;-58
2023/05/04 03:10:59;;;;;;;14.68;10.48;;;;;;;;;;5044084;28;20423;-59
2023/05/04 03:13:26;;;;;;;16.03;11.20;;;;;;;;;;5042500;28;20960;-60
2023/05/04 03:15:53;;;;;;;13.63;10.93;;;;;;;;;;5043301;28;20412;-59
2023/05/04 03:18:21;;;;;;;15.18;11.13;;;;;;;;;;5041401;28;20415;-60
2023/05/04 03:20:48;;;;;;;14.70;10.18;;;;;;;;;;5045598;28;21136;-60
2023/05/04 03:23:16;;;;;;;17.50;10.10;;;;;;;;;;5043475;28;20414;-59
2023/05/04 03:25:43;;;;;;;14.70;10.15;;;;;;;;;;5043584;28;20421;-58
2023/05/04 03:28:10;;;;;;;13.93;9.68;;;;;;;;;;5043211;28;20409;-59
2023/05/04 03:30:37;;;;;;;13.13;10.05;;;;;;;;;;5051788;28;20465;-58
2023/05/04 03:33:04;;;;;;;12.68;9.38;;;;;;;;;;5046880;28;20458;-58
2023/05/04 03:35:31;;;;;;;12.95;9.77;;;;;;;;;;5043465;28;20459;-60
2023/05/04 03:37:58;;;;;;;13.07;9.00;;;;;;;;;;5041757;28;20415;-60
2023/05/04 03:40:26;;;;;;;12.38;9.02;;;;;;;;;;5044276;28;20459;-60
2023/05/04 03:42:53;;;;;;;14.23;9.00;;;;;;;;;;5041686;28;20411;-60
2023/05/04 03:45:20;;;;;;;12.60;9.17;;;;;;;;;;5040743;28;20411;-60
2023/05/04 03:47:47;;;;;;;10.95;8.65;;;;;;;;;;5042826;28;20899;-60
2023/05/04 03:50:14;;;;;;;12.05;8.80;;;;;;;;;;5042094;28;21259;-60
2023/05/04 03:52:41;;;;;;;12.82;8.80;;;;;;;;;;5040247;28;20909;-60
2023/05/04 03:55:09;;;;;;;13.23;9.32;;;;;;;;;;5044070;28;20838;-60
2023/05/04 03:57:37;;;;;;;11.88;8.57;;;;;;;;;;5040314;28;20758;-60
2023/05/04 04:00:05;;;;;;;12.18;9.18;;;;;;;;;;5048849;28;20409;-60
2023/05/04 04:02:32;;;;;;;13.13;9.25;;;;;;;;;;5049576;28;20413;-60
2023/05/04 04:04:59;;;;;;;14.02;8.65;;;;;;;;;;5043354;28;20765;-60
2023/05/04 04:07:26;;;;;;;10.40;8.13;;;;;;;;;;5040979;28;20415;-60
2023/05/04 04:09:52;;;;;;;11.38;8.85;;;;;;;;;;5041577;28;20418;-59
2023/05/04 04:12:19;;;;;;;12.30;8.73;;;;;;;;;;5041762;28;20421;-60
2023/05/04 04:14:50;;;;;;;15.38;9.27;;;;;;;;;;5042452;28;20417;-58
2023/05/04 04:17:17;;;;;;;14.63;8.77;;;;;;;;;;5031676;28;20905;-60
2023/05/04 04:19:44;;;;;;;12.35;8.50;;;;;;;;;;5033453;28;20485;-59
2023/05/04 04:22:11;;;;;;;13.20;8.65;;;;;;;;;;5031275;28;20419;-59
2023/05/04 04:24:38;;;;;;;14.65;8.68;;;;;;;;;;5030512;28;20411;-59
2023/05/04 04:27:05;;;;;;;11.50;8.40;;;;;;;;;;5039327;28;20456;-59
2023/05/04 04:29:34;;;;;;;10.48;8.77;;;;;;;;;;5046602;28;20464;-59
2023/05/04 04:32:02;;;;;;;11.90;9.13;;;;;;;;;;5046141;28;20423;-60
2023/05/04 04:34:29;;;;;;;14.27;9.27;;;;;;;;;;5039925;28;20415;-60
2023/05/04 04:36:56;;;;;;;13.07;9.30;;;;;;;;;;5040131;28;20825;-59
2023/05/04 04:39:23;;;;;;;13.75;9.63;;;;;;;;;;5053036;28;20455;-61
2023/05/04 04:41:50;;;;;;;14.53;9.67;;;;;;;;;;5056149;28;20472;-61
2023/05/04 04:44:17;;;;;;;14.95;9.63;;;;;;;;;;5050770;28;20890;-61
2023/05/04 04:46:45;;;;;;;17.02;10.07;;;;;;;;;;5039017;28;20419;-61
2023/05/04 04:49:13;;;;;;;17.53;9.93;;;;;;;;;;5040260;28;20423;-61
2023/05/04 04:51:40;;;;;;;12.97;9.77;;;;;;;;;;5042126;28;20467;-61
2023/05/04 04:54:07;;;;;;;13.98;9.48;;;;;;;;;;5040507;28;20918;-61
2023/05/04 04:56:35;;;;;;;12.98;9.38;;;;;;;;;;5038420;28;20780;-60
2023/05/04 04:59:02;;;;;;;14.27;9.68;;;;;;;;;;5042215;28;20413;-61
2023/05/04 05:01:28;;;;;;;16.50;10.13;;;;;;;;;;5047144;28;20418;-60
2023/05/04 05:03:56;;;;;;;15.82;10.20;;;;;;;;;;5037476;28;20417;-61
2023/05/04 05:06:24;;;;;;;18.33;10.75;;;;;;;;;;5040684;28;20417;-61
2023/05/04 05:08:52;;;;;;;15.38;10.30;;;;;;;;;;5038467;28;20468;-61
2023/05/04 05:11:19;;;;;;;17.25;10.48;;;;;;;;;;5042743;28;20443;-61
2023/05/04 05:13:46;;;;;;;18.73;10.52;;;;;;;;;;5039934;28;20430;-62
2023/05/04 05:16:13;;;;;;;16.08;9.57;;;;;;;;;;5041839;28;20413;-61
2023/05/04 05:18:41;;;;;;;15.73;10.60;;;;;;;;;;5040547;28;20462;-61
2023/05/04 05:21:08;;;;;;;16.58;10.27;;;;;;;;;;5039062;28;20415;-62
2023/05/04 05:23:36;;;;;;;16.67;10.13;;;;;;;;;;5040236;28;20409;-62
2023/05/04 05:26:03;;;;;;;16.27;9.53;;;;;;;;;;5041884;28;20837;-61
2023/05/04 05:28:31;;;;;;;17.13;10.02;;;;;;;;;;5057114;28;20481;-60
2023/05/04 05:30:58;;;;;;;15.35;9.60;;;;;;;;;;5047505;28;20490;-61
2023/05/04 05:33:25;;;;;;;17.77;9.63;;;;;;;;;;5046051;28;20423;-59
2023/05/04 05:35:52;;;;;;;36.28;11.52;;;;;;;;;;5039233;28;20415;-60
2023/05/04 05:38:20;;;;;;;58.83;14.15;;;;;;;;;;5045196;28;20500;-60
2023/05/04 05:40:48;;;;;;;90.70;16.45;;;;;;;;;;5044575;28;20475;-59
2023/05/04 05:43:15;;;;;;;84.82;16.02;;;;;;;;;;5044468;28;20413;-58
2023/05/04 05:45:42;;;;;;;62.22;12.98;;;;;;;;;;5043273;28;20421;-60
2023/05/04 05:48:09;;;;;;;14.93;8.05;;;;;;;;;;5046539;28;20424;-59
2023/05/04 05:50:36;;;;;;;58.50;11.73;;;;;;;;;;5047650;28;20411;-59
2023/05/04 05:53:03;;;;;;;30.98;8.40;;;;;;;;;;5044305;28;20441;-60
2023/05/04 05:55:30;;;;;;;29.58;8.02;;;;;;;;;;5043610;28;20479;-59
2023/05/04 05:57:58;;;;;;;25.73;7.97;;;;;;;;;;5046445;28;20471;-61
2023/05/04 06:00:26;;;;;;;234.88;28.40;;;;;;;;;;5044412;28;20919;-62
2023/05/04 06:02:54;;;;;;;32.03;7.82;;;;;;;;;;5042531;28;20422;-61
2023/05/04 06:05:22;;;;;;;23.45;6.70;;;;;;;;;;5048583;28;20835;-61
2023/05/04 06:07:49;;;;;;;13.05;6.45;;;;;;;;;;5050378;28;20423;-58
2023/05/04 06:10:16;;;;;;;19.73;6.38;;;;;;;;;;5041465;28;20827;-58
2023/05/04 06:12:43;;;;;;;17.23;6.47;;;;;;;;;;5041182;28;20426;-58
2023/05/04 06:15:13;;;;;;;13.63;6.27;;;;;;;;;;5043564;28;20474;-57
2023/05/04 06:17:40;;;;;;;11.63;5.30;;;;;;;;;;5044255;28;20475;-58
2023/05/04 06:20:08;;;;;;;9.70;5.20;;;;;;;;;;5042654;28;20505;-60
2023/05/04 06:22:35;;;;;;;7.75;4.93;;;;;;;;;;5048689;28;20417;-60
2023/05/04 06:25:02;;;;;;;11.27;5.20;;;;;;;;;;5043269;28;20414;-59
2023/05/04 06:27:30;;;;;;;15.65;7.32;;;;;;;;;;5053632;28;20412;-61
2023/05/04 06:29:57;;;;;;;10.93;5.55;;;;;;;;;;5042204;28;20472;-60
2023/05/04 06:32:25;;;;;;;10.15;5.22;;;;;;;;;;5045183;28;20433;-61
2023/05/04 06:34:54;;;;;;;11.03;5.17;;;;;;;;;;5041380;28;20465;-61
2023/05/04 06:37:21;;;;;;;9.10;5.00;;;;;;;;;;5032778;28;20422;-61
2023/05/04 06:39:48;;;;;;;9.63;5.10;;;;;;;;;;5032520;28;20448;-62
2023/05/04 06:42:15;;;;;;;12.27;5.38;;;;;;;;;;5044971;28;20426;-62
2023/05/04 06:44:42;;;;;;;23.38;6.75;;;;;;;;;;5045006;28;20429;-61
2023/05/04 06:47:09;;;;;;;18.20;5.82;;;;;;;;;;5049983;28;20532;-62
2023/05/04 06:49:37;;;;;;;11.95;5.88;;;;;;;;;;5038412;28;20448;-62
2023/05/04 06:52:04;;;;;;;16.73;5.80;;;;;;;;;;5051561;28;20418;-62
2023/05/04 06:54:31;;;;;;;8.95;4.60;;;;;;;;;;5053021;28;20478;-61
2023/05/04 06:56:58;;;;;;;9.53;5.10;;;;;;;;;;5051953;28;20482;-62
2023/05/04 06:59:25;;;;;;;9.63;5.13;;;;;;;;;;5053319;28;20412;-62
2023/05/04 07:01:52;;;;;;;10.10;4.97;;;;;;;;;;5042435;28;20557;-62
2023/05/04 07:04:21;;;;;;;16.45;5.60;;;;;;;;;;5049264;28;21091;-61
2023/05/04 07:06:50;;;;;;;34.28;7.00;;;;;;;;;;5048967;28;20422;-61
2023/05/04 07:09:19;;;;;;;7.07;3.80;;;;;;;;;;5047203;28;20419;-60
2023/05/04 07:11:47;;;;;;;6.50;4.10;;;;;;;;;;5043542;28;20421;-62
2023/05/04 07:14:14;;;;;;;7.38;4.00;;;;;;;;;;5039903;28;20427;-62
2023/05/04 07:16:41;;;;;;;14.77;4.45;;;;;;;;;;5040581;28;20422;-62
2023/05/04 07:19:08;;;;;;;29.00;6.25;;;8.60;99.90;;;;;;5042577;28;20470;-62
2023/05/04 07:21:35;;;;;;;7.47;3.90;;;;;;;;;;5046091;28;20880;-63
2023/05/04 07:24:04;;;;;;;6.13;3.55;;;;;;;;;;5052081;28;20413;-62
2023/05/04 07:26:31;;;;;;;5.47;3.65;;;;;;;;;;5047679;28;20495;-61
2023/05/04 07:28:58;;;;;;;6.28;3.80;;;;;;;;;;5050145;28;20795;-61
2023/05/04 07:31:25;;;;;;;7.65;3.55;;;;;;;;;;5042837;28;20466;-63
2023/05/04 07:33:52;;;;;;;7.55;3.58;;;;;;;;;;5051713;28;20566;-61
2023/05/04 07:36:19;;;;;;;7.35;3.92;;;;;;;;;;5040677;28;20425;-60
2023/05/04 07:38:46;;;;;;;6.18;3.70;;;;;;;;;;5041078;28;20465;-61
2023/05/04 07:41:14;;;;;;;6.45;3.55;;;;;;;;;;5038842;28;20474;-63
2023/05/04 07:43:41;;;;;;;6.45;3.47;;;14.40;99.90;;;;;;5045961;28;20848;-62
2023/05/04 07:46:08;;;;;;;7.88;3.75;;;;;;;;;;5043374;28;20798;-62
2023/05/04 07:48:35;;;;;;;8.18;3.65;;;;;;;;;;5062053;28;20414;-62
2023/05/04 07:51:02;;;;;;;6.90;3.72;;;;;;;;;;5044757;28;21078;-62
2023/05/04 07:53:29;;;;;;;6.25;3.70;;;;;;;;;;5056040;28;21023;-61
2023/05/04 07:56:07;;;;;;;6.53;3.50;;;;;;;;;;5041544;28;20427;-64
2023/05/04 07:58:36;;;;;;;9.55;3.80;;;;;;;;;;5043458;28;20413;-64
2023/05/04 08:01:03;;;;;;;5.78;3.78;;;;;;;;;;5041356;28;20472;-59
2023/05/04 08:03:31;;;;;;;6.47;3.83;;;;;;;;;;5054970;28;20408;-60
2023/05/04 08:05:57;;;;;;;5.68;3.60;;;;;;;;;;5041718;28;20427;-62
2023/05/04 08:08:25;;;;;;;6.60;3.80;;;;;;;;;;5041949;28;20468;-61
2023/05/04 08:10:52;;;;;;;6.75;3.55;;;;;;;;;;5041682;28;20427;-62
2023/05/04 08:13:19;;;;;;;5.30;3.50;;;;;;;;;;5041706;28;20429;-61
2023/05/04 08:15:48;;;;;;;8.15;3.70;;;;;;;;;;5040934;28;20501;-59
2023/05/04 08:18:15;;;;;;;7.80;3.90;;;;;;;;;;5038916;28;20411;-62
2023/05/04 08:20:42;;;;;;;11.13;4.28;;;;;;;;;;5040803;28;20467;-60
2023/05/04 08:23:09;;;;;;;9.07;4.38;;;;;;;;;;5050402;28;20414;-60
2023/05/04 08:25:36;;;;;;;7.55;4.05;;;;;;;;;;5045875;28;20419;-62
2023/05/04 08:28:03;;;;;;;6.72;4.13;;;;;;;;;;5048858;28;20484;-61
2023/05/04 08:30:30;;;;;;;7.50;4.40;;;;;;;;;;5038177;28;20414;-62
2023/05/04 08:32:59;;;;;;;8.93;4.25;;;;;;;;;;5040777;28;20423;-59
2023/05/04 08:35:26;;;;;;;7.47;4.07;;;;;;;;;;5041143;28;20483;-62
2023/05/04 08:37:54;;;;;;;8.27;4.07;;;;;;;;;;5039733;28;20511;-62
2023/05/04 08:40:22;;;;;;;6.70;3.80;;;;;;;;;;5042578;28;20485;-63
2023/05/04 08:42:51;;;;;;;9.35;4.15;;;;;;;;;;5041006;28;20459;-63
2023/05/04 08:45:18;;;;;;;9.20;4.25;;;;;;;;;;5054763;28;20417;-62
2023/05/04 08:47:45;;;;;;;7.83;4.00;;;;;;;;;;5048249;28;20837;-64
2023/05/04 08:50:14;;;;;;;7.57;3.70;;;;;;;;;;5050566;28;20972;-63
2023/05/04 08:52:45;;;;;;;10.60;4.32;;;;;;;;;;5048596;28;20413;-64
2023/05/04 08:55:12;;;;;;;7.18;3.92;;;;;;;;;;5040780;28;20427;-64
2023/05/04 08:57:40;;;;;;;8.48;4.40;;;;;;;;;;5044794;28;20422;-64
2023/05/04 09:00:07;;;;;;;7.88;3.90;;;;;;;;;;5039445;28;20423;-63
2023/05/04 09:02:35;;;;;;;7.97;3.90;;;;;;;;;;5039069;28;20419;-63
2023/05/04 09:05:02;;;;;;;6.05;3.80;;;;;;;;;;5036395;28;20418;-62
2023/05/04 09:07:30;;;;;;;6.13;3.70;;;;;;;;;;5048946;28;20417;-62
2023/05/04 09:09:58;;;;;;;6.95;3.90;;;;;;;;;;5041362;28;20427;-61
2023/05/04 09:12:26;;;;;;;11.27;4.50;;;;;;;;;;5038726;28;20441;-62
2023/05/04 09:14:53;;;;;;;8.50;4.10;;;;;;;;;;5038727;28;20504;-62
2023/05/04 09:17:24;;;;;;;19.35;5.40;;;;;;;;;;5040777;28;20417;-64
2023/05/04 09:19:57;;;;;;;11.57;4.63;;;;;;;;;;5043098;28;20492;-63
2023/05/04 09:22:24;;;;;;;7.45;4.40;;;;;;;;;;5046711;28;20417;-64
2023/05/04 09:24:53;;;;;;;6.35;4.38;;;;;;;;;;5052529;28;20409;-61
2023/05/04 09:27:21;;;;;;;5.57;3.72;;;;;;;;;;5044315;28;20471;-61
2023/05/04 09:29:53;;;;;;;11.02;4.07;;;;;;;;;;5039678;28;20454;-60
2023/05/04 09:32:20;;;;;;;9.05;4.70;;;;;;;;;;5040106;28;20419;-61
2023/05/04 09:34:49;;;;;;;6.13;4.40;;;;;;;;;;5044244;28;20827;-64
2023/05/04 09:37:17;;;;;;;8.55;4.53;;;;;;;;;;5048402;28;20789;-61
2023/05/04 09:39:55;;;;;;;7.05;4.80;;;;;;;;;;5055033;28;20428;-65
2023/05/04 09:42:22;;;;;;;7.43;5.10;;;;;;;;;;5037131;28;21006;-62
2023/05/04 09:45:02;;;;;;;9.20;4.53;;;;;;;;;;5039783;28;20407;-61
2023/05/04 09:47:36;;;;;;;5.13;4.28;;;;;;;;;;5043652;28;21066;-61
2023/05/04 09:50:16;;;;;;;4.85;3.83;;;;;;;;;;5051510;28;20885;-59
2023/05/04 09:52:44;;;;;;;8.23;4.40;;;;;;;;;;5047060;28;20411;-62
2023/05/04 09:55:13;;;;;;;8.30;4.20;;;;;;;;;;5047317;28;20835;-61
2023/05/04 09:57:42;;;;;;;8.20;4.40;;;;;;;;;;5041405;28;20409;-63
2023/05/04 10:00:11;;;;;;;7.03;4.20;;;;;;;;;;5041237;28;20409;-62
2023/05/04 10:02:38;;;;;;;7.63;4.00;;;;;;;;;;5040204;28;20429;-62
2023/05/04 10:05:05;;;;;;;7.03;4.35;;;;;;;;;;5041396;28;20924;-62
2023/05/04 10:07:34;;;;;;;5.43;4.10;;;;;;;;;;5060438;28;20411;-62
2023/05/04 10:10:02;;;;;;;6.97;3.95;;;;;;;;;;5042268;28;20456;-62
2023/05/04 10:12:30;;;;;;;4.50;3.40;;;;;;;;;;5038454;28;20421;-62
2023/05/04 10:14:57;;;;;;;5.20;3.80;;;;;;;;;;5040686;28;20427;-62
2023/05/04 10:17:28;;;;;;;5.13;3.80;;;;;;;;;;5037882;28;20422;-62
2023/05/04 10:20:04;;;;;;;4.90;3.53;;;;;;;;;;5039442;28;20425;-61
2023/05/04 10:22:37;;;;;;;5.78;3.80;;;;;;;;;;5049492;28;20461;-61
2023/05/04 10:25:23;;;;;;;7.05;4.05;;;;;;;;;;5048274;28;20466;-60
2023/05/04 10:28:02;;;;;;;5.25;3.40;;;;;;;;;;5053104;28;20449;-66
2023/05/04 10:30:29;;;;;;;13.75;4.72;;;;;;;;;;5044433;28;20505;-66
2023/05/04 10:32:57;;;;;;;5.77;3.73;;;;;;;;;;5043369;28;20419;-69
2023/05/04 10:35:24;;;;;;;8.38;3.40;;;;;;;;;;5042991;28;20431;-68
2023/05/04 10:37:53;;;;;;;4.10;2.92;;;;;;;;;;5046012;28;20418;-67
2023/05/04 10:40:20;;;;;;;5.88;3.20;;;;;;;;;;5044672;28;20453;-68
2023/05/04 10:42:47;;;;;;;6.57;3.40;;;;;;;;;;5041725;28;20790;-67
2023/05/04 10:45:17;;;;;;;5.53;3.07;;;;;;;;;;5053391;28;20405;-68
2023/05/04 10:47:44;;;;;;;4.70;3.10;;;;;;;;;;5056028;28;20867;-67
2023/05/04 10:50:13;;;;;;;6.30;3.40;;;;;;;;;;5050826;28;20414;-69
2023/05/04 10:52:47;;;;;;;6.55;3.50;;;;;;;;;;5054717;28;20426;-69
2023/05/04 10:55:14;;;;;;;4.18;3.20;;;;;;;;;;5044899;28;20965;-68
2023/05/04 10:57:48;;;;;;;4.88;3.22;;;;;;;;;;5040437;28;20423;-67
2023/05/04 11:00:17;;;;;;;6.53;3.42;;;;;;;;;;5041878;28;20418;-67
2023/05/04 11:02:46;;;;;;;6.90;3.70;;;;;;;;;;5040580;28;20419;-68
2023/05/04 11:05:17;;;;;;;5.30;3.40;;;;;;;;;;5046221;28;20769;-67
2023/05/04 11:07:44;;;;;;;6.13;2.70;;;;;;;;;;5051652;28;20417;-66
2023/05/04 11:10:21;;;;;;;4.85;3.00;;;;;;;;;;5041199;28;20415;-68
2023/05/04 11:12:48;;;;;;;5.27;2.60;;;;;;;;;;5032191;28;20434;-66
2023/05/04 11:15:16;;;;;;;5.05;3.00;;;;;;;;;;5031511;28;20457;-67
2023/05/04 11:17:46;;;;;;;4.10;2.70;;;;;;;;;;5040171;28;20422;-67
2023/05/04 11:20:20;;;;;;;8.45;3.03;;;;;;;;;;5041987;28;20899;-66
2023/05/04 11:22:47;;;;;;;5.38;2.83;;;;;;;;;;5044798;28;20409;-68
2023/05/04 11:25:15;;;;;;;4.80;2.92;;;;;;;;;;5044413;28;20413;-64
2023/05/04 11:27:43;;;;;;;4.63;3.00;;;;;;;;;;5048006;28;20508;-67
2023/05/04 11:30:10;;;;;;;4.80;2.63;;;;;;;;;;5041504;28;20876;-67
2023/05/04 11:32:41;;;;;;;5.13;2.30;;;;;;;;;;5039911;28;20949;-69
2023/05/04 11:35:09;;;;;;;4.68;2.40;;;;;;;;;;5041169;28;20533;-66
2023/05/04 11:37:40;;;;;;;4.22;2.70;;;;;;;;;;5042644;28;20479;-68
2023/05/04 11:40:10;;;;;;;4.53;2.72;;;;;;;;;;5040428;28;20454;-66
2023/05/04 11:42:38;;;;;;;5.85;2.75;;;;;;;;;;5045591;28;21074;-66
2023/05/04 11:45:06;;;;;;;3.83;2.47;;;;;;;;;;5051021;28;20424;-67
2023/05/04 11:47:33;;;;;;;5.57;2.40;;;;;;;;;;5042587;28;20808;-67
2023/05/04 11:50:01;;;;;;;3.58;2.33;;;;;;;;;;5052958;28;20409;-67
2023/05/04 11:52:30;;;;;;;4.47;2.30;;;;;;;;;;5046515;28;20796;-65
2023/05/04 11:54:57;;;;;;;4.50;2.47;;;;;;;;;;5046139;28;20437;-65
2023/05/04 11:57:24;;;;;;;4.88;2.30;;;;;;;;;;5043310;28;20413;-66
2023/05/04 11:59:51;;;;;;;7.03;3.00;;;;;;;;;;5039720;28;20445;-66
2023/05/04 12:02:19;;;;;;;6.40;2.95;;;;;;;;;;5043493;28;20471;-68
2023/05/04 12:04:46;;;;;;;9.52;3.53;;;;;;;;;;5051660;28;20487;-68
2023/05/04 12:07:14;;;;;;;3.60;2.40;;;;;;;;;;5040893;28;20418;-66
2023/05/04 12:09:45;;;;;;;3.75;2.30;;;;;;;;;;5051085;28;20417;-65
2023/05/04 12:12:12;;;;;;;4.10;2.28;;;;;;;;;;5043664;28;20790;-67
2023/05/04 12:14:47;;;;;;;10.75;3.15;;;;;;;;;;5039759;28;20431;-67
2023/05/04 12:17:14;;;;;;;7.18;2.47;;;;;;;;;;5030835;28;20460;-67
2023/05/04 12:19:47;;;;;;;8.07;2.40;;;;;;;;;;5030914;28;20411;-68
2023/05/04 12:22:16;;;;;;;3.50;2.10;;;;;;;;;;5045077;28;20415;-66
2023/05/04 12:24:43;;;;;;;5.13;2.40;;;;;;;;;;5058766;28;20413;-66
2023/05/04 12:27:12;;;;;;;3.72;2.22;;;;;;;;;;5045565;28;20945;-66
2023/05/04 12:29:40;;;;;;;4.68;2.30;;;;;;;;;;5054338;28;20417;-65
2023/05/04 12:32:07;;;;;;;4.70;2.22;;;;;;;;;;5039616;28;20415;-69
2023/05/04 12:34:34;;;;;;;5.80;2.35;;;;;;;;;;5040804;28;20409;-67
2023/05/04 12:37:01;;;;;;;10.43;2.92;;;;;;;;;;5041361;28;20513;-70
2023/05/04 12:39:31;;;;;;;3.80;2.20;;;;;;;;;;5038357;28;20417;-70
2023/05/04 12:41:58;;;;;;;3.30;2.03;;;;;;;;;;5042674;28;20968;-68
2023/05/04 12:44:25;;;;;;;5.70;2.10;;;;;;;;;;5049616;28;20465;-67
2023/05/04 12:46:54;;;;;;;17.83;6.30;;;;;;;;;;5039249;28;20431;-68
2023/05/04 12:49:21;;;;;;;4.18;2.10;;;;;;;;;;5046818;28;20833;-69
2023/05/04 12:51:49;;;;;;;3.92;2.35;;;;;;;;;;5047302;28;20417;-69
2023/05/04 12:54:16;;;;;;;14.82;4.05;;;;;;;;;;5047482;28;20477;-68
2023/05/04 12:56:44;;;;;;;4.55;2.13;;;;;;;;;;5042263;28;20437;-67
2023/05/04 12:59:11;;;;;;;5.43;2.50;;;;;;;;;;5043291;28;20428;-68
2023/05/04 13:01:40;;;;;;;3.80;2.10;;;;;;;;;;5040087;28;20918;-69
2023/05/04 13:04:07;;;;;;;3.33;2.20;;;;;;;;;;5046276;28;20415;-70
2023/05/04 13:06:34;;;;;;;3.78;2.30;;;;;;;;;;5046188;28;20411;-69
2023/05/04 13:09:04;;;;;;;3.20;1.90;;;;;;;;;;5039679;28;20411;-66
2023/05/04 13:11:31;;;;;;;4.20;2.00;;;;;;;;;;5038936;28;20478;-66
2023/05/04 13:13:59;;;;;;;6.60;2.30;;;;;;;;;;5044287;28;20429;-66
2023/05/04 13:16:26;;;;;;;4.10;2.53;;;;;;;;;;5041936;28;20427;-65
2023/05/04 13:18:54;;;;;;;3.95;2.00;;;;;;;;;;5041172;28;20843;-66
2023/05/04 13:21:21;;;;;;;2.72;1.67;;;;;;;;;;5043153;28;20834;-65
2023/05/04 13:23:48;;;;;;;2.37;1.90;;;;;;;;;;5048775;28;20413;-65
2023/05/04 13:26:17;;;;;;;3.45;1.90;;;;;;;;;;5045368;28;20419;-65
2023/05/04 13:28:45;;;;;;;5.10;1.80;;;;;;;;;;5041055;28;20453;-66
2023/05/04 13:31:13;;;;;;;3.35;2.03;;;;;;;;;;5050629;28;20470;-65
2023/05/04 13:33:40;;;;;;;3.22;1.75;;;;;;;;;;5037615;28;20884;-67
2023/05/04 13:36:07;;;;;;;2.45;1.90;;;;;;;;;;5037653;28;20434;-66
2023/05/04 13:38:34;;;;;;;2.70;1.80;;;;;;;;;;5042754;28;20425;-66
2023/05/04 13:41:01;;;;;;;3.10;1.70;;;;;;;;;;5053073;28;20787;-67
2023/05/04 13:43:29;;;;;;;3.00;1.80;;;;;;;;;;5043740;28;20471;-66
2023/05/04 13:45:56;;;;;;;4.35;1.73;;;;;;;;;;5039190;28;20454;-67
2023/05/04 13:48:25;;;;;;;2.63;1.83;;;;;;;;;;5040000;28;20421;-65
2023/05/04 13:50:52;;;;;;;2.38;1.98;;;;;;;;;;5041574;28;20418;-66
2023/05/04 13:53:19;;;;;;;3.67;1.95;;;;;;;;;;5045363;28;20426;-66
2023/05/04 13:55:46;;;;;;;3.20;1.70;;;;;;;;;;5041896;28;20924;-66
2023/05/04 13:58:13;;;;;;;2.70;1.90;;;;;;;;;;5041360;28;20830;-67
2023/05/04 14:00:40;;;;;;;2.93;2.00;;;;;;;;;;5043309;28;20418;-61
2023/05/04 14:03:07;;;;;;;3.25;1.70;;;;;;;;;;5044807;28;20413;-60
2023/05/04 14:05:35;;;;;;;3.38;1.77;;;;;;;;;;5043560;28;20410;-59
2023/05/04 14:08:03;;;;;;;2.60;1.90;;;;;;;;;;5042520;28;20509;-59
2023/05/04 14:10:30;;;;;;;2.10;1.70;;;;;;;;;;5047356;28;20480;-60
2023/05/04 14:12:57;;;;;;;2.97;1.83;;;;;;;;;;5040659;28;20418;-61
2023/05/04 14:15:26;;;;;;;3.50;1.90;;;;;;;;;;5048465;28;20423;-59
2023/05/04 14:17:53;;;;;;;3.35;1.90;;;;;;;;;;5045213;28;20484;-59
2023/05/04 14:20:20;;;;;;;2.53;1.88;;;;;;;;;;5044658;28;20935;-60
2023/05/04 14:22:48;;;;;;;2.47;2.00;;;;;;;;;;5046205;28;20463;-60
2023/05/04 14:25:15;;;;;;;4.68;2.08;;;;;;;;;;5051402;28;20417;-60
2023/05/04 14:27:43;;;;;;;3.40;1.80;;;;;;;;;;5044061;28;20475;-60
2023/05/04 14:30:11;;;;;;;2.70;1.80;;;;;;;;;;5044803;28;20409;-60
2023/05/04 14:32:38;;;;;;;2.53;1.80;;;;;;;;;;5042072;28;20456;-60
2023/05/04 14:35:07;;;;;;;3.10;1.60;;;;;;;;;;5043468;28;20421;-60
2023/05/04 14:37:35;;;;;;;2.95;1.60;;;;;;;;;;5041505;28;20502;-60
2023/05/04 14:40:04;;;;;;;3.53;1.45;;;;;;;;;;5044705;28;20413;-59